Time;durP1;ratioP1;P1;durP2;ratioP2;P2;SDS_P1;SDS_P2;PMS_P1;PMS_P2;Temp;Humidity;BMP_temperature;BMP_pressure;BME280_temperature;BME280_humidity;BME280_pressure;Samples;Min_cycle;Max_cycle;Signal;HPM_P1;HPM_P2
2024/01/20 00:01:55;;;;;;;1.80;1.70;;;;;;;3.56;60.99;94741.53;5139255;27;20568;-67
2024/01/20 00:04:21;;;;;;;1.80;1.70;;;;;;;3.51;60.65;94740.84;5138928;27;20229;-67
2024/01/20 00:06:48;;;;;;;1.75;1.65;;;;;;;3.51;61.27;94744.38;5138711;27;20204;-67
2024/01/20 00:09:17;;;;;;;1.75;1.65;;;;;;;3.59;61.31;94768.16;5138133;27;20247;-67
2024/01/20 00:11:44;;;;;;;1.77;1.67;;;;;;;3.57;60.80;94761.41;5139164;27;20202;-67
2024/01/20 00:14:12;;;;;;;1.70;1.60;;;;;;;3.51;60.40;94758.00;5138586;27;20218;-67
2024/01/20 00:16:39;;;;;;;1.90;1.80;;;;;;;3.50;60.37;94769.25;5138470;27;20191;-67
2024/01/20 00:19:06;;;;;;;1.60;1.50;;;;;;;3.46;61.15;94760.88;5138700;27;20194;-67
2024/01/20 00:21:33;;;;;;;1.55;1.48;;;;;;;3.39;60.81;94763.25;5139024;27;20506;-67
2024/01/20 00:24:00;;;;;;;1.40;1.40;;;;;;;3.31;60.60;94773.03;5138714;27;20206;-67
2024/01/20 00:26:27;;;;;;;1.52;1.42;;;;;;;3.26;61.18;94780.53;5138678;27;20219;-67
2024/01/20 00:28:54;;;;;;;1.58;1.48;;;;;;;3.30;61.44;94784.22;5137995;27;20223;-67
2024/01/20 00:31:22;;;;;;;1.58;1.48;;;;;;;3.35;61.37;94786.81;5138753;27;20275;-67
2024/01/20 00:33:49;;;;;;;1.63;1.52;;;;;;;3.28;61.23;94789.19;5138855;27;20195;-67
2024/01/20 00:39:00;;;;;;;1.52;1.42;;;;;;;3.35;61.17;94797.72;5138569;27;20279;-67
2024/01/20 00:41:27;;;;;;;1.55;1.45;;;;;;;3.35;61.18;94800.47;5137811;27;20256;-67
2024/01/20 00:43:54;;;;;;;1.30;1.30;;;;;;;3.33;60.69;94803.47;5137578;27;20602;-67
2024/01/20 00:46:23;;;;;;;1.23;1.23;;;;;;;3.18;61.22;94798.44;5138169;27;20259;-67
2024/01/20 00:48:50;;;;;;;1.70;1.60;;;;;;;3.12;61.77;94802.41;5137519;27;20183;-67
2024/01/20 00:51:17;;;;;;;1.80;1.70;;;;;;;3.19;61.55;94810.13;5138223;27;20256;-67
2024/01/20 00:53:44;;;;;;;1.50;1.40;;;;;;;3.11;61.15;94808.97;5137485;27;20588;-68
2024/01/20 00:56:11;;;;;;;1.80;1.70;;;;;;;3.19;61.59;94810.13;5137290;27;20211;-68
2024/01/20 00:58:38;;;;;;;1.50;1.40;;;;;;;3.13;61.67;94826.63;5137399;27;20195;-68
2024/01/20 01:01:05;;;;;;;1.38;1.38;;;;;;;3.05;61.65;94834.75;5137234;27;20191;-68
2024/01/20 01:03:33;;;;;;;1.55;1.45;;;;;;;3.02;61.54;94827.22;5138236;27;20191;-68
2024/01/20 01:06:00;;;;;;;1.40;1.30;;;;;;;3.00;61.06;94824.78;5137105;27;20187;-68
2024/01/20 01:08:27;;;;;;;1.70;1.60;;;;;;;2.98;61.89;94821.56;5137625;27;20195;-67
2024/01/20 01:10:55;;;;;;;1.40;1.40;;;;;;;2.90;61.52;94833.19;5137526;27;20191;-67
2024/01/20 01:13:22;;;;;;;1.63;1.52;;;;;;;2.89;61.72;94843.28;5137828;27;20283;-67
2024/01/20 01:15:49;;;;;;;1.35;1.35;;;;;;;2.92;61.88;94827.47;5137885;27;20657;-67
2024/01/20 01:18:16;;;;;;;1.55;1.48;;;;;;;2.80;62.25;94836.19;5138079;27;20203;-67
2024/01/20 01:20:45;;;;;;;1.35;1.35;;;;;;;2.86;62.06;94826.75;5137596;27;20195;-67
2024/01/20 01:23:12;;;;;;;1.52;1.42;;;;;;;2.86;62.67;94830.28;5137531;27;20199;-67
2024/01/20 01:25:39;;;;;;;1.58;1.48;;;;;;;2.92;62.47;94838.34;5137561;27;20497;-67
2024/01/20 01:28:06;;;;;;;1.70;1.60;;;;;;;2.89;62.45;94846.03;5136997;27;20616;-67
2024/01/20 01:30:33;;;;;;;1.40;1.40;;;;;;;2.87;62.60;94850.19;5136905;27;20216;-67
2024/01/20 01:33:00;;;;;;;1.65;1.58;;;;;;;2.83;63.20;94844.56;5136987;27;20254;-67
2024/01/20 01:35:27;;;;;;;1.40;1.30;;;;;;;2.75;62.70;94864.34;5137477;27;20279;-67
2024/01/20 01:37:58;;;;;;;1.23;1.23;;;;;;;2.70;63.90;94856.28;5137357;27;20259;-67
2024/01/20 01:40:25;;;;;;;1.38;1.27;;;;;;;2.70;64.13;94839.16;5137310;27;20195;-68
2024/01/20 01:42:56;;;;;;;1.45;1.35;;;;;;;2.71;64.29;94836.13;5137005;27;20580;-68
2024/01/20 01:45:23;;;;;;;1.33;1.30;;;;;;;2.74;64.07;94848.31;5137212;27;20563;-68
2024/01/20 01:47:50;;;;;;;1.10;1.10;;;;;;;2.65;64.66;94829.16;5136883;27;20272;-68
2024/01/20 01:50:17;;;;;;;1.33;1.30;;;;;;;2.56;64.46;94834.56;5137092;27;20202;-68
2024/01/20 01:52:44;;;;;;;1.35;1.33;;;;;;;2.48;65.23;94834.50;5137058;27;20563;-68
2024/01/20 01:55:12;;;;;;;1.35;1.25;;;;;;;2.42;65.81;94850.13;5137397;27;20630;-68
2024/01/20 01:57:40;;;;;;;1.50;1.40;;;;;;;2.20;66.17;94861.75;5136807;27;20208;-68
2024/01/20 02:00:07;;;;;;;1.40;1.40;;;;;;;2.17;66.46;94859.66;5136741;27;20590;-68
2024/01/20 02:02:34;;;;;;;1.45;1.40;;;;;;;2.23;67.04;94855.72;5137687;27;20187;-68
2024/01/20 02:05:01;;;;;;;1.20;1.20;;;;;;;2.22;66.79;94854.13;5136249;27;20224;-68
2024/01/20 02:07:30;;;;;;;1.40;1.40;;;;;;;2.23;66.90;94854.91;5136864;27;20225;-68
2024/01/20 02:09:57;;;;;;;1.45;1.35;;;;;;;2.16;66.83;94849.88;5136774;27;20237;-69
2024/01/20 02:12:26;;;;;;;1.85;1.30;;;;;;;2.14;66.80;94847.47;5136584;27;20199;-68
2024/01/20 02:14:53;;;;;;;1.40;1.30;;;;;;;2.19;67.04;94851.19;5136634;27;20233;-68
2024/01/20 02:17:20;;;;;;;1.70;1.60;;;;;;;2.20;66.39;94842.72;5135794;27;20564;-68
2024/01/20 02:19:47;;;;;;;1.50;1.40;;;;;;;2.06;66.62;94853.63;5137064;27;20255;-68
2024/01/20 02:22:16;;;;;;;1.30;1.30;;;;;;;2.07;66.96;94862.56;5136854;27;20191;-69
2024/01/20 02:24:48;;;;;;;1.40;1.30;;;;;;;2.08;66.74;94856.03;5135935;27;20195;-69
2024/01/20 02:27:15;;;;;;;1.42;1.42;;;;;;;2.15;66.20;94851.00;5136089;27;20260;-68
2024/01/20 02:29:42;;;;;;;1.60;1.50;;;;;;;2.13;65.96;94848.56;5136023;27;20236;-67
2024/01/20 02:32:09;;;;;;;1.50;1.40;;;;;;;2.15;66.22;94859.16;5136411;27;20202;-67
2024/01/20 02:34:37;;;;;;;1.63;1.52;;;;;;;2.11;65.80;94867.13;5136034;27;20186;-67
2024/01/20 02:37:04;;;;;;;1.45;1.38;;;;;;;2.12;65.92;94867.94;5135960;27;20195;-67
2024/01/20 02:39:32;;;;;;;1.50;1.40;;;;;;;2.14;66.33;94871.13;5136405;27;20187;-68
2024/01/20 02:41:59;;;;;;;1.50;1.50;;;;;;;2.21;65.03;94885.13;5136249;27;20248;-68
2024/01/20 02:44:26;;;;;;;1.10;1.10;;;;;;;2.12;64.94;94906.81;5135372;27;20247;-68
2024/01/20 02:46:53;;;;;;;1.20;1.20;;;;;;;2.06;64.54;94915.38;5136541;27;20205;-68
2024/01/20 02:49:20;;;;;;;1.27;1.23;;;;;;;1.97;64.18;94919.94;5135603;27;20222;-68
2024/01/20 02:51:47;;;;;;;1.10;1.10;;;;;;;1.90;64.43;94921.13;5119281;28;20194;-68
2024/01/20 02:54:14;;;;;;;1.17;1.17;;;;;;;1.88;64.37;94917.91;5135751;27;20240;-68
2024/01/20 02:56:42;;;;;;;1.50;1.40;;;;;;;1.97;64.87;94928.09;5135727;27;20259;-68
2024/01/20 02:59:09;;;;;;;1.50;1.40;;;;;;;2.01;64.82;94932.63;5135171;27;20191;-68
2024/01/20 03:01:37;;;;;;;1.48;1.30;;;;;;;1.94;64.94;94934.94;5135949;27;20244;-68
2024/01/20 03:04:04;;;;;;;1.60;1.50;;;;;;;1.94;65.41;94926.78;5135672;27;20255;-67
2024/01/20 03:06:31;;;;;;;1.50;1.40;;;;;;;1.97;65.46;94923.47;5136057;28;20251;-68
2024/01/20 03:08:58;;;;;;;1.30;1.30;;;;;;;1.92;64.97;94929.81;5135989;28;20293;-68
2024/01/20 03:11:25;;;;;;;1.60;1.50;;;;;;;1.85;65.45;94934.00;5135367;28;20187;-68
2024/01/20 03:13:53;;;;;;;1.45;1.40;;;;;;;1.90;65.82;94933.94;5136077;28;20202;-68
2024/01/20 03:16:20;;;;;;;1.45;1.35;;;;;;;1.93;65.74;94945.00;5135226;28;20202;-68
2024/01/20 03:18:47;;;;;;;1.33;1.23;;;;;;;1.93;66.15;94952.38;5135522;28;20643;-68
2024/01/20 03:21:14;;;;;;;1.40;1.40;;;;;;;1.89;66.24;94954.09;5135246;28;20245;-68
2024/01/20 03:23:42;;;;;;;1.10;1.10;;;;;;;1.91;66.98;94958.09;5136036;28;20244;-68
2024/01/20 03:26:10;;;;;;;1.20;1.20;;;;;;;1.88;67.11;94961.41;5134938;28;20293;-68
2024/01/20 03:28:38;;;;;;;1.25;1.17;;;;;;;1.85;67.49;94972.09;5135835;28;20284;-67
2024/01/20 03:31:06;;;;;;;1.10;1.10;;;;;;;1.82;66.70;94981.66;5135081;28;20195;-68
2024/01/20 03:33:33;;;;;;;1.10;1.10;;;;;;;1.67;67.25;94981.91;5135136;28;20209;-68
2024/01/20 03:36:00;;;;;;;1.15;1.15;;;;;;;1.62;67.80;94988.25;5135552;28;20211;-68
2024/01/20 03:38:27;;;;;;;1.20;1.20;;;;;;;1.66;68.20;94994.72;5135740;28;20192;-68
2024/01/20 03:40:54;;;;;;;1.45;1.35;;;;;;;1.67;68.65;94976.47;5134757;28;20191;-68
2024/01/20 03:43:21;;;;;;;1.48;1.38;;;;;;;1.67;67.98;94977.31;5135299;28;20191;-68
2024/01/20 03:45:48;;;;;;;1.25;1.17;;;;;;;1.61;68.71;94983.94;5135147;28;20199;-68
2024/01/20 03:48:16;;;;;;;1.20;1.20;;;;;;;1.64;68.81;94980.63;5135315;28;20195;-68
2024/01/20 03:50:43;;;;;;;1.20;1.10;;;;;;;1.60;68.29;94997.84;5135041;28;20252;-68
2024/01/20 03:53:10;;;;;;;1.20;1.20;;;;;;;1.55;68.86;95009.59;5135642;28;20195;-68
2024/01/20 03:55:37;;;;;;;1.13;1.13;;;;;;;1.48;68.83;95003.72;5135800;27;20211;-68
2024/01/20 03:58:05;;;;;;;1.17;1.17;;;;;;;1.51;69.16;95008.56;5138825;27;20195;-68
2024/01/20 04:00:31;;;;;;;1.38;1.30;;;;;;;1.54;69.46;95001.75;5139099;27;20199;-68
2024/01/20 04:02:58;;;;;;;1.40;1.30;;;;;;;1.57;69.73;95003.88;5139038;27;20191;-68
2024/01/20 04:05:27;;;;;;;1.50;1.40;;;;;;;1.55;69.59;95009.59;5139318;27;20195;-68
2024/01/20 04:07:54;;;;;;;1.58;1.48;;;;;;;1.53;69.61;95011.81;5138387;27;20209;-68
2024/01/20 04:10:21;;;;;;;1.60;1.50;;;;;;;1.49;69.70;95013.50;5139359;27;20183;-68
2024/01/20 04:12:48;;;;;;;1.42;1.33;;;;;;;1.44;70.14;95022.53;5138536;27;20598;-68
2024/01/20 04:15:15;;;;;;;1.30;1.20;;;;;;;1.44;70.24;95032.59;5138099;27;20215;-68
2024/01/20 04:17:42;;;;;;;1.60;1.20;;;;;;;1.44;70.32;95038.03;5138170;27;20236;-68
2024/01/20 04:20:10;;;;;;;1.08;1.08;;;;;;;1.43;71.07;95047.31;5139298;27;20195;-68
2024/01/20 04:22:39;;;;;;;1.20;1.10;;;;;;;1.42;70.58;95045.69;5138541;27;20206;-68
2024/01/20 04:25:07;;;;;;;1.13;1.13;;;;;;;1.42;70.37;95042.97;5138715;27;20195;-68
2024/01/20 04:27:40;;;;;;;1.30;1.30;;;;;;;1.33;70.59;95047.44;5138215;27;20296;-68
2024/01/20 04:30:08;;;;;;;1.35;1.10;;;;;;;1.35;70.89;95056.13;5137886;27;20293;-68
2024/01/20 04:32:36;;;;;;;1.15;1.15;;;;;;;1.37;70.89;95067.50;5137889;27;20217;-68
2024/01/20 04:35:03;;;;;;;1.30;1.20;;;;;;;1.35;70.30;95059.66;5138302;27;20191;-68
2024/01/20 04:37:30;;;;;;;1.30;1.30;;;;;;;1.32;71.01;95062.94;5138069;27;20187;-68
2024/01/20 04:40:00;;;;;;;1.50;1.40;;;;;;;1.33;71.38;95070.00;5137992;27;20195;-68
2024/01/20 04:42:27;;;;;;;1.35;1.35;;;;;;;1.33;71.07;95072.72;5137975;27;20254;-68
2024/01/20 04:44:54;;;;;;;1.45;1.35;;;;;;;1.32;70.80;95076.53;5138487;27;20263;-68
2024/01/20 04:47:21;;;;;;;1.70;1.60;;;;;;;1.31;71.14;95077.66;5137613;27;20195;-68
2024/01/20 04:49:51;;;;;;;1.30;1.30;;;;;;;1.29;71.15;95074.41;5138720;27;20539;-68
2024/01/20 04:52:18;;;;;;;1.70;1.60;;;;;;;1.18;70.96;95072.94;5137620;27;20543;-68
2024/01/20 04:54:45;;;;;;;1.50;1.40;;;;;;;1.18;71.32;95091.97;5137730;27;20187;-68
2024/01/20 04:57:13;;;;;;;1.30;1.30;;;;;;;1.19;71.56;95096.28;5138594;27;20204;-68
2024/01/20 04:59:41;;;;;;;1.83;1.42;;;;;;;1.19;71.19;95086.22;5137581;27;20200;-67
2024/01/20 05:02:08;;;;;;;1.50;1.40;;;;;;;1.18;71.12;95081.91;5138232;27;20183;-67
2024/01/20 05:04:35;;;;;;;1.60;1.50;;;;;;;1.15;71.52;95092.53;5138207;27;20564;-67
2024/01/20 05:07:02;;;;;;;1.60;1.50;;;;;;;1.14;71.63;95099.06;5137695;27;20191;-67
2024/01/20 05:09:29;;;;;;;1.60;1.50;;;;;;;1.12;71.66;95095.84;5137323;27;20195;-66
2024/01/20 05:11:57;;;;;;;1.40;1.30;;;;;;;1.09;71.87;95104.56;5137741;27;20195;-66
2024/01/20 05:14:26;;;;;;;1.70;1.60;;;;;;;1.10;71.45;95107.00;5137459;27;20314;-66
2024/01/20 05:16:53;;;;;;;1.70;1.60;;;;;;;1.06;71.47;95103.25;5137577;27;20275;-66
2024/01/20 05:19:20;;;;;;;1.77;1.67;;;;;;;1.04;71.36;95110.06;5137192;27;20603;-67
2024/01/20 05:21:47;;;;;;;1.65;1.55;;;;;;;1.05;71.58;95108.97;5137209;27;20199;-67
2024/01/20 05:24:15;;;;;;;1.45;1.45;;;;;;;1.03;71.57;95117.41;5137738;27;20248;-67
2024/01/20 05:26:41;;;;;;;1.60;1.50;;;;;;;1.01;71.41;95111.47;5136911;27;20209;-67
2024/01/20 05:29:09;;;;;;;1.70;1.60;;;;;;;1.01;71.45;95116.09;5136525;27;20234;-67
2024/01/20 05:31:37;;;;;;;1.70;1.60;;;;;;;1.01;71.38;95114.19;5137303;27;20248;-67
2024/01/20 05:34:04;;;;;;;1.95;1.85;;;;;;;1.01;71.69;95107.94;5136560;27;20234;-67
2024/01/20 05:36:31;;;;;;;1.92;1.83;;;;;;;1.02;71.85;95114.97;5136563;27;20222;-67
2024/01/20 05:38:58;;;;;;;1.70;1.60;;;;;;;1.02;71.41;95109.53;5137103;27;20247;-67
2024/01/20 05:41:25;;;;;;;1.80;1.70;;;;;;;1.02;71.33;95106.81;5137547;27;20195;-67
2024/01/20 05:43:52;;;;;;;2.10;2.00;;;;;;;1.02;71.32;95112.25;5136399;27;20210;-68
2024/01/20 05:46:20;;;;;;;2.03;1.92;;;;;;;1.01;71.19;95116.09;5136976;27;20195;-68
2024/01/20 05:48:49;;;;;;;1.95;1.85;;;;;;;1.02;71.00;95120.41;5137044;27;20206;-68
2024/01/20 05:51:16;;;;;;;1.80;1.70;;;;;;;0.98;71.46;95114.78;5136789;27;20275;-68
2024/01/20 05:53:43;;;;;;;2.28;2.08;;;;;;;0.98;71.45;95111.22;5136501;27;20229;-68
2024/01/20 05:56:10;;;;;;;1.80;1.70;;;;;;;0.93;71.50;95121.06;5136734;27;20211;-68
2024/01/20 05:58:37;;;;;;;1.90;1.80;;;;;;;0.93;71.60;95120.25;5136786;27;20195;-68
2024/01/20 06:01:04;;;;;;;1.98;1.88;;;;;;;0.92;71.55;95116.75;5136620;27;20259;-68
2024/01/20 06:03:31;;;;;;;1.90;1.80;;;;;;;0.89;71.64;95122.75;5136906;27;20191;-68
2024/01/20 06:06:00;;;;;;;2.08;1.98;;;;;;;0.84;71.70;95130.16;5136688;27;20270;-68
2024/01/20 06:08:27;;;;;;;1.95;1.85;;;;;;;0.80;71.75;95124.50;5137156;27;20183;-68
2024/01/20 06:10:54;;;;;;;2.40;2.22;;;;;;;0.79;71.94;95131.00;5136925;27;20214;-71
2024/01/20 06:13:20;;;;;;;2.10;2.00;;;;;;;0.81;72.33;95128.81;5136663;27;20179;-69
2024/01/20 06:15:47;;;;;;;1.90;1.80;;;;;;;0.85;72.02;95142.63;5136509;27;20220;-74
2024/01/20 06:18:14;;;;;;;2.00;1.90;;;;;;;0.84;72.45;95139.13;5136183;27;20228;-68
2024/01/20 06:20:41;;;;;;;2.45;2.25;;;;;;;0.85;72.38;95146.16;5136257;27;20642;-67
2024/01/20 06:23:10;;;;;;;2.15;2.00;;;;;;;0.83;72.27;95144.81;5136165;27;20206;-67
2024/01/20 06:25:37;;;;;;;2.05;1.95;;;;;;;0.84;72.14;95155.41;5135952;27;20199;-68
2024/01/20 06:28:05;;;;;;;2.00;1.90;;;;;;;0.80;71.70;95140.78;5135862;27;20230;-68
2024/01/20 06:30:32;;;;;;;2.45;2.25;;;;;;;0.75;71.68;95154.41;5135932;27;20194;-68
2024/01/20 06:32:59;;;;;;;2.20;2.00;;;;;;;0.65;71.76;95158.06;5136782;27;20183;-68
2024/01/20 06:35:26;;;;;;;2.22;2.08;;;;;;;0.68;72.05;95162.09;5135682;27;20652;-68
2024/01/20 06:37:53;;;;;;;1.95;1.80;;;;;;;0.69;71.60;95160.97;5135454;27;20241;-68
2024/01/20 06:40:22;;;;;;;2.22;2.13;;;;;;;0.72;71.53;95173.97;5135398;27;20201;-68
2024/01/20 06:42:49;;;;;;;2.05;1.92;;;;;;;0.73;71.32;95175.63;5135891;27;20264;-68
2024/01/20 06:45:16;;;;;;;2.10;1.90;;;;;;;0.72;71.63;95172.06;5135292;27;20191;-68
2024/01/20 06:47:43;;;;;;;2.00;1.90;;;;;;;0.66;71.60;95175.97;5135723;27;20187;-68
2024/01/20 06:50:10;;;;;;;2.20;2.10;;;;;;;0.69;70.96;95183.53;5136135;27;20199;-67
2024/01/20 06:52:37;;;;;;;3.17;2.55;;;;;;;0.67;71.17;95179.47;5135272;27;20207;-67
2024/01/20 06:55:05;;;;;;;2.58;2.38;;;;;;;0.65;71.52;95187.09;5136334;27;20206;-68
2024/01/20 06:57:33;;;;;;;2.85;2.65;;;;;;;0.65;71.17;95181.66;5135538;27;20214;-69
2024/01/20 07:00:00;;;;;;;2.75;2.55;;;;;;;0.70;71.34;95184.34;5135288;27;20202;-67
2024/01/20 07:02:30;;;;;;;2.70;2.58;;;;;;;0.70;71.76;95190.56;5135130;27;20255;-67
2024/01/20 07:04:57;;;;;;;3.08;2.88;;;;;;;0.71;71.13;95205.75;5135815;27;20191;-67
2024/01/20 07:07:24;;;;;;;4.53;4.15;;;;;;;0.67;70.98;95203.91;5136278;27;20201;-67
2024/01/20 07:09:51;;;;;;;3.53;3.22;;;;;;;0.63;70.97;95209.09;5135874;28;20205;-67
2024/01/20 07:12:21;;;;;;;3.28;2.97;;;;;;;0.64;70.91;95205.28;5135944;28;20191;-67
2024/01/20 07:14:49;;;;;;;3.80;3.50;;;;;;;0.65;71.51;95212.34;5135544;28;20530;-67
2024/01/20 07:17:16;;;;;;;3.10;2.90;;;;;;;0.64;71.60;95208.00;5135200;28;20211;-67
2024/01/20 07:19:43;;;;;;;3.22;3.00;;;;;;;0.57;71.38;95204.00;5135665;28;20574;-67
2024/01/20 07:22:10;;;;;;;3.65;3.35;;;;;;;0.58;71.16;95221.91;5135609;28;20222;-68
2024/01/20 07:24:37;;;;;;;3.60;3.30;;;;;;;0.63;71.34;95230.03;5136025;28;20202;-67
2024/01/20 07:27:04;;;;;;;4.28;3.60;;;;;;;0.61;71.14;95232.19;5135484;28;20199;-67
2024/01/20 07:29:31;;;;;;;3.00;2.80;;;;;;;0.59;71.75;95234.41;5134905;28;20567;-67
2024/01/20 07:32:00;;;;;;;3.08;2.88;;;;;;;0.64;71.82;95232.44;5138819;27;20198;-67
2024/01/20 07:34:26;;;;;;;2.83;2.63;;;;;;;0.72;71.15;95239.94;5139801;27;20203;-67
2024/01/20 07:36:53;;;;;;;2.90;2.70;;;;;;;0.72;71.22;95244.56;5138907;27;20214;-66
2024/01/20 07:39:20;;;;;;;2.80;2.60;;;;;;;0.71;71.50;95248.41;5139612;27;20191;-66
2024/01/20 07:41:47;;;;;;;2.90;2.70;;;;;;;0.76;70.97;95239.38;5139968;27;20187;-67
2024/01/20 07:44:14;;;;;;;2.85;2.65;;;;;;;0.77;71.29;95246.44;5138981;27;20183;-70
2024/01/20 07:46:41;;;;;;;2.55;2.35;;;;;;;0.79;70.47;95253.19;5139460;27;20559;-71
2024/01/20 07:49:11;;;;;;;2.80;2.60;;;;;;;0.80;70.79;95251.28;5138897;27;20557;-71
2024/01/20 07:51:38;;;;;;;3.50;3.20;;;;;;;0.79;70.76;95264.06;5138973;27;20207;-71
2024/01/20 07:54:05;;;;;;;2.80;2.60;;;;;;;0.78;70.63;95259.72;5138691;27;20203;-71
2024/01/20 07:56:32;;;;;;;2.40;2.30;;;;;;;0.57;71.12;95274.59;5138459;27;20214;-71
2024/01/20 07:58:59;;;;;;;2.80;2.60;;;;;;;0.51;70.49;95273.84;5139390;27;20203;-71
2024/01/20 08:01:26;;;;;;;3.10;2.90;;;;;;;0.54;70.44;95273.22;5138851;27;20248;-75
2024/01/20 08:03:54;;;;;;;3.35;3.05;;;;;;;0.63;70.91;95287.03;5139599;27;20207;-68
2024/01/20 08:06:22;;;;;;;3.17;2.92;;;;;;;0.69;70.89;95292.13;5138617;27;20199;-67
2024/01/20 08:08:49;;;;;;;3.45;3.25;;;;;;;0.71;70.38;95291.84;5139194;27;20175;-67
2024/01/20 08:11:16;;;;;;;3.38;3.10;;;;;;;0.71;70.57;95297.25;5139328;27;20561;-67
2024/01/20 08:13:43;;;;;;;3.08;2.88;;;;;;;0.72;70.55;95296.97;5139117;27;20191;-67
2024/01/20 08:16:10;;;;;;;3.42;3.13;;;;;;;0.73;70.34;95284.22;5139141;27;20187;-68
2024/01/20 08:18:38;;;;;;;3.55;3.30;;;;;;;0.74;70.34;95285.03;5138758;27;20199;-67
2024/01/20 08:21:08;;;;;;;3.42;3.22;;;;;;;0.69;70.12;95283.16;5139170;27;20195;-67
2024/01/20 08:23:36;;;;;;;4.00;3.67;;;;;;;0.64;70.00;95302.22;5138817;27;20184;-67
2024/01/20 08:26:04;;;;;;;4.22;3.92;;;;;;;0.63;70.37;95317.69;5137855;27;20203;-68
2024/01/20 08:28:32;;;;;;;4.40;4.10;;;;;;;0.65;70.88;95315.50;5137689;27;20636;-68
2024/01/20 08:30:58;;;;;;;4.40;4.00;;;;;;;0.62;70.48;95317.97;5138755;27;20198;-77
2024/01/20 08:33:25;;;;;;;4.28;3.97;;;;;;;0.68;70.28;95333.13;5139123;27;20247;-77
2024/01/20 08:35:52;;;;;;;4.10;3.80;;;;;;;0.68;70.32;95323.06;5138447;27;20199;-76
2024/01/20 08:38:20;;;;;;;3.30;3.00;;;;;;;0.69;70.54;95316.56;5138130;27;20522;-76
2024/01/20 08:40:48;;;;;;;4.00;3.60;;;;;;;0.79;70.23;95321.06;5138498;27;20271;-78
2024/01/20 08:43:15;;;;;;;3.55;3.25;;;;;;;0.84;70.22;95323.75;5136664;27;20195;-77
2024/01/20 08:45:43;;;;;;;3.40;3.20;;;;;;;0.85;70.66;95322.66;5137882;27;20240;-76
2024/01/20 08:48:09;;;;;;;4.22;3.92;;;;;;;0.87;69.77;95325.06;5138415;27;20195;-76
2024/01/20 08:50:36;;;;;;;4.25;3.95;;;;;;;0.93;69.89;95338.34;5138112;27;20209;-76
2024/01/20 08:53:04;;;;;;;3.17;2.97;;;;;;;0.96;69.78;95340.47;5138174;27;20199;-76
2024/01/20 08:55:31;;;;;;;3.75;3.45;;;;;;;0.96;69.72;95332.34;5138321;27;20205;-76
2024/01/20 08:58:01;;;;;;;4.35;4.05;;;;;;;1.03;69.86;95347.50;5137316;27;20226;-76
2024/01/20 09:00:28;;;;;;;3.85;3.55;;;;;;;1.04;69.60;95338.25;5138068;27;20240;-77
2024/01/20 09:02:55;;;;;;;4.20;3.90;;;;;;;1.04;69.72;95341.78;5138152;27;20285;-76
2024/01/20 09:05:22;;;;;;;4.75;4.35;;;;;;;1.01;69.42;95339.63;5138009;27;20195;-76
2024/01/20 09:07:49;;;;;;;5.60;4.32;;;;;;;1.07;69.99;95341.19;5137919;27;20202;-75
2024/01/20 09:10:16;;;;;;;4.75;4.35;;;;;;;1.09;69.75;95346.34;5137205;27;20207;-76
2024/01/20 09:12:43;;;;;;;4.47;4.07;;;;;;;1.13;69.32;95356.38;5137541;27;20195;-76
2024/01/20 09:15:12;;;;;;;4.20;3.90;;;;;;;1.12;68.96;95349.28;5137173;27;20199;-75
2024/01/20 09:17:39;;;;;;;4.50;4.10;;;;;;;1.06;68.85;95350.47;5137611;27;20309;-75
2024/01/20 09:20:08;;;;;;;5.13;4.72;;;;;;;1.05;68.80;95356.97;5137309;27;20193;-75
2024/01/20 09:22:35;;;;;;;4.97;4.32;;;;;;;1.07;69.30;95373.00;5137168;27;20194;-75
2024/01/20 09:25:03;;;;;;;4.43;4.10;;;;;;;1.08;69.11;95361.03;5137744;27;20187;-76
2024/01/20 09:27:30;;;;;;;5.07;4.68;;;;;;;1.09;69.24;95365.34;5136696;27;20629;-75
2024/01/20 09:29:57;;;;;;;5.13;4.72;;;;;;;1.04;67.89;95365.41;5137372;27;20195;-75
2024/01/20 09:32:26;;;;;;;5.38;4.97;;;;;;;1.03;67.98;95364.59;5137434;27;20195;-75
2024/01/20 09:34:53;;;;;;;5.47;5.07;;;;;;;1.02;67.94;95370.31;5137450;27;20243;-75
2024/01/20 09:37:20;;;;;;;6.25;5.65;;;;;;;1.06;68.05;95368.66;5137146;27;20218;-75
2024/01/20 09:39:47;;;;;;;6.13;5.53;;;;;;;1.04;67.85;95371.66;5137333;27;20202;-75
2024/01/20 09:42:15;;;;;;;6.97;6.38;;;;;;;1.03;67.94;95377.38;5137061;27;20199;-75
2024/01/20 09:44:42;;;;;;;6.35;5.85;;;;;;;1.04;68.24;95374.38;5136715;27;20183;-75
2024/01/20 09:47:11;;;;;;;6.78;6.20;;;;;;;0.99;68.16;95377.13;5137046;27;20200;-75
2024/01/20 09:49:39;;;;;;;6.90;6.30;;;;;;;0.99;68.92;95377.13;5136340;27;20232;-75
2024/01/20 09:52:10;;;;;;;8.85;8.05;;;;;;;1.00;68.68;95383.38;5136146;27;20213;-75
2024/01/20 09:54:53;;;;;;;6.53;5.93;;;;;;;1.03;68.98;95374.66;5136153;27;20194;-75
2024/01/20 09:57:21;;;;;;;7.32;6.72;;;;;;;1.07;68.76;95373.00;5136720;27;20216;-76
2024/01/20 09:59:50;;;;;;;6.47;5.97;;;;;;;1.08;67.70;95369.16;5136554;27;20202;-75
2024/01/20 10:02:17;;;;;;;8.48;7.78;;;;;;;1.04;67.51;95377.09;5136388;27;20203;-72
2024/01/20 10:04:46;;;;;;;7.70;7.10;;;;;;;1.09;68.08;95366.19;5136978;27;20290;-75
2024/01/20 10:07:27;;;;;;;7.65;7.05;;;;;;;1.10;67.81;95367.81;5136006;27;20198;-76
2024/01/20 10:09:54;;;;;;;7.60;7.05;;;;;;;1.08;68.03;95358.31;5136572;27;20195;-76
2024/01/20 10:12:21;;;;;;;7.65;6.95;;;;;;;1.10;68.28;95362.38;5136800;27;20207;-77
2024/01/20 10:14:48;;;;;;;8.13;7.43;;;;;;;0.98;67.91;95356.50;5136976;27;20191;-76
2024/01/20 10:17:16;;;;;;;8.23;7.60;;;;;;;0.89;67.80;95358.22;5136693;27;20218;-76
2024/01/20 10:19:43;;;;;;;7.70;7.10;;;;;;;0.93;67.97;95362.78;5137122;27;20230;-77
2024/01/20 10:22:11;;;;;;;8.50;7.80;;;;;;;0.93;67.57;95356.53;5136408;27;20195;-77
2024/01/20 10:24:47;;;;;;;7.53;6.93;;;;;;;1.00;67.96;95354.31;5135724;27;20191;-77
2024/01/20 10:27:17;;;;;;;7.70;7.10;;;;;;;1.02;67.28;95354.00;5136665;27;20186;-77
2024/01/20 10:29:44;;;;;;;10.63;9.73;;;;;;;0.95;67.18;95352.44;5136380;27;20207;-77
2024/01/20 10:32:13;;;;;;;8.02;7.43;;;;;;;0.93;67.86;95356.53;5135694;27;20238;-77
2024/01/20 10:34:40;;;;;;;7.03;6.53;;;;;;;0.91;68.06;95354.13;5136122;27;20526;-77
2024/01/20 10:37:12;;;;;;;6.72;6.22;;;;;;;0.94;67.54;95350.00;5136644;27;20206;-77
2024/01/20 10:39:43;;;;;;;7.30;6.70;;;;;;;0.91;67.54;95354.13;5135859;27;20528;-77
2024/01/20 10:42:12;;;;;;;7.07;6.57;;;;;;;0.90;67.28;95355.19;5136058;27;20201;-77
2024/01/20 10:44:40;;;;;;;7.68;7.07;;;;;;;0.85;68.08;95352.53;5135903;27;20203;-77
2024/01/20 10:47:15;;;;;;;7.70;7.10;;;;;;;0.86;68.06;95354.16;5136764;27;20211;-77
2024/01/20 10:49:45;;;;;;;6.90;6.40;;;;;;;0.91;68.27;95366.91;5135633;27;20209;-77
2024/01/20 10:52:14;;;;;;;8.80;8.00;;;;;;;0.87;68.09;95358.50;5135965;27;20294;-77
2024/01/20 10:54:43;;;;;;;8.00;7.40;;;;;;;0.82;68.43;95361.25;5135253;27;20196;-77
2024/01/20 10:57:11;;;;;;;8.18;7.47;;;;;;;0.90;68.99;95357.91;5135244;27;20203;-77
2024/01/20 10:59:40;;;;;;;16.20;14.80;;;;;;;0.96;68.17;95347.81;5135508;27;20206;-77
2024/01/20 11:02:12;;;;;;;8.68;7.97;;;;;;;0.91;68.29;95343.25;5135680;27;20290;-77
2024/01/20 11:04:43;;;;;;;7.95;7.35;;;;;;;0.90;69.01;95346.25;5136154;27;20198;-77
2024/01/20 11:07:11;;;;;;;10.85;9.95;;;;;;;0.94;69.28;95355.44;5134391;27;20226;-77
2024/01/20 11:09:41;;;;;;;8.18;7.55;;;;;;;0.96;69.38;95345.09;5135773;28;20529;-78
2024/01/20 11:12:08;;;;;;;8.38;7.70;;;;;;;0.84;69.24;95352.84;5135559;28;20202;-77
2024/01/20 11:14:36;;;;;;;7.60;7.03;;;;;;;0.88;69.75;95351.16;5135660;28;20618;-76
2024/01/20 11:17:12;;;;;;;8.70;8.00;;;;;;;0.89;69.45;95342.72;5136137;28;20243;-76
2024/01/20 11:19:39;;;;;;;7.80;7.20;;;;;;;0.83;69.50;95352.00;5135509;28;20203;-77
2024/01/20 11:22:07;;;;;;;9.43;8.63;;;;;;;0.80;69.63;95347.16;5135946;28;20306;-77
2024/01/20 11:24:40;;;;;;;9.23;8.43;;;;;;;0.84;70.04;95347.41;5135499;28;20252;-76
2024/01/20 11:27:07;;;;;;;10.85;9.75;;;;;;;0.79;69.33;95353.66;5135168;28;20210;-76
2024/01/20 11:29:35;;;;;;;9.38;8.57;;;;;;;0.79;69.71;95350.13;5134870;28;20234;-76
2024/01/20 11:32:02;;;;;;;10.27;9.48;;;;;;;0.74;69.87;95353.72;5135703;28;20202;-76
2024/01/20 11:34:29;;;;;;;7.63;7.03;;;;;;;0.77;69.71;95352.34;5134860;28;20207;-76
2024/01/20 11:36:59;;;;;;;7.80;7.18;;;;;;;0.72;69.81;95348.56;5135684;28;20183;-76
2024/01/20 11:39:26;;;;;;;7.53;7.03;;;;;;;0.72;70.00;95356.69;5134664;28;20226;-76
2024/01/20 11:42:04;;;;;;;8.23;7.53;;;;;;;0.72;70.45;95359.41;5135502;28;20198;-76
2024/01/20 11:44:32;;;;;;;8.63;7.93;;;;;;;0.74;70.55;95355.63;5135654;28;20239;-75
2024/01/20 11:46:59;;;;;;;10.45;9.65;;;;;;;0.64;70.02;95364.66;5136097;28;20195;-78